Strona główna
METAR-TAF:

METAR-TAF

Lotnisko :

Port lotniczy Mendoza

Mendoza, Argentyna

Szerokość geograficzna: 32-50S, Długość geograficzna: 068-47W, wysokość: 705 m

Aktualna obserwacja pogody

Raport powstał 16 minut temu, godzina 22:00 UTC
Cisza
Temperatura 10°C
Wilgotność 76%
Ciśnienie 1020 hPa
Widzialność 10 km lub więcej
Brak chmur poniżej 1500 m i brak chmur cumulonimbus

METAR: SAME 042200Z 00000KT CAVOK 10/06 Q1020

czas: 19:16 (22:16 UTC)

Prognoza

Raport powstał 5 godziny i 16 minut temu, godzina 17:00 UTC
Prognoza ważna od 04 godzina 18 UTC do 05 godzina 18 UTC
Wiatr 5 kt od północny wschód
Widzialność 10 km lub więcej
Rozproszone chmury na wysokości 4000 ft
Rozproszone chmury na wysokości 10000 ft

TAF: SAME 041700Z 0418/0518 05005KT 9999 SCT040 SCT100 TX14/0420Z TN01/0510Z

Obserwacja i prognoza pogody dla ponad 4000 lotnisk (raport METAR i TAF).

Dostępne stacje oznaczono żółtymi i czerwonymi punktami na mapie.

Najedź kursorem aby zobaczyć nazwę stacji.

Kliknij aby zobaczyć obserwacje i prognozy pogody.

Aby zmienić mapę: kliknij na zielony przycisk z czarnym krzyżykiem, aby powiększyć; na zielony przycisk z myślnikiem, aby pomniejszyć; na zielone strzałki, aby przejść do map sąsiednich.


METAR-TAF: